sensor_id;sensor_type;location;lat;lon;timestamp;P1;durP1;ratioP1;P2;durP2;ratioP2
31043;SDS011;17710;52.520;13.352;2023-03-04T00:02:04;50.72;;;22.10;;
31043;SDS011;17710;52.520;13.352;2023-03-04T00:04:31;49.55;;;20.77;;
31043;SDS011;17710;52.520;13.352;2023-03-04T00:06:57;47.42;;;21.48;;
31043;SDS011;17710;52.520;13.352;2023-03-04T00:09:25;48.10;;;20.30;;
31043;SDS011;17710;52.520;13.352;2023-03-04T00:11:52;54.38;;;21.27;;
31043;SDS011;17710;52.520;13.352;2023-03-04T00:14:18;47.78;;;20.00;;
31043;SDS011;17710;52.520;13.352;2023-03-04T00:16:45;45.28;;;17.83;;
31043;SDS011;17710;52.520;13.352;2023-03-04T00:19:13;51.42;;;20.52;;
31043;SDS011;17710;52.520;13.352;2023-03-04T00:21:39;51.42;;;19.58;;
31043;SDS011;17710;52.520;13.352;2023-03-04T00:24:06;51.38;;;19.55;;
31043;SDS011;17710;52.520;13.352;2023-03-04T00:26:34;44.78;;;18.52;;
31043;SDS011;17710;52.520;13.352;2023-03-04T00:29:00;51.53;;;19.45;;
31043;SDS011;17710;52.520;13.352;2023-03-04T00:31:27;48.10;;;19.67;;
31043;SDS011;17710;52.520;13.352;2023-03-04T00:33:53;46.13;;;19.02;;
31043;SDS011;17710;52.520;13.352;2023-03-04T00:36:20;46.55;;;19.60;;
31043;SDS011;17710;52.520;13.352;2023-03-04T00:38:46;50.08;;;19.90;;
31043;SDS011;17710;52.520;13.352;2023-03-04T00:41:12;51.63;;;19.42;;
31043;SDS011;17710;52.520;13.352;2023-03-04T00:43:40;52.15;;;18.98;;
31043;SDS011;17710;52.520;13.352;2023-03-04T00:46:07;43.60;;;17.30;;
31043;SDS011;17710;52.520;13.352;2023-03-04T00:48:33;46.78;;;18.27;;
31043;SDS011;17710;52.520;13.352;2023-03-04T00:50:59;47.80;;;17.75;;
31043;SDS011;17710;52.520;13.352;2023-03-04T00:53:26;45.15;;;16.67;;
31043;SDS011;17710;52.520;13.352;2023-03-04T00:55:52;41.67;;;16.80;;
31043;SDS011;17710;52.520;13.352;2023-03-04T00:58:19;43.92;;;17.60;;
31043;SDS011;17710;52.520;13.352;2023-03-04T01:00:47;42.20;;;16.80;;
31043;SDS011;17710;52.520;13.352;2023-03-04T01:03:13;46.45;;;16.35;;
31043;SDS011;17710;52.520;13.352;2023-03-04T01:05:40;46.08;;;16.10;;
31043;SDS011;17710;52.520;13.352;2023-03-04T01:08:09;45.40;;;15.18;;
31043;SDS011;17710;52.520;13.352;2023-03-04T01:10:36;45.33;;;15.88;;
31043;SDS011;17710;52.520;13.352;2023-03-04T01:13:02;49.00;;;15.48;;
31043;SDS011;17710;52.520;13.352;2023-03-04T01:15:29;41.83;;;15.98;;
31043;SDS011;17710;52.520;13.352;2023-03-04T01:17:56;41.83;;;14.98;;
31043;SDS011;17710;52.520;13.352;2023-03-04T01:20:23;47.67;;;14.73;;
31043;SDS011;17710;52.520;13.352;2023-03-04T01:22:53;44.92;;;13.73;;
31043;SDS011;17710;52.520;13.352;2023-03-04T01:25:19;38.33;;;12.80;;
31043;SDS011;17710;52.520;13.352;2023-03-04T01:27:46;38.22;;;12.82;;
31043;SDS011;17710;52.520;13.352;2023-03-04T01:30:12;32.80;;;12.13;;
31043;SDS011;17710;52.520;13.352;2023-03-04T01:32:40;37.83;;;12.18;;
31043;SDS011;17710;52.520;13.352;2023-03-04T01:35:08;36.08;;;11.98;;
31043;SDS011;17710;52.520;13.352;2023-03-04T01:37:35;36.55;;;12.55;;
31043;SDS011;17710;52.520;13.352;2023-03-04T01:40:01;38.53;;;10.68;;
31043;SDS011;17710;52.520;13.352;2023-03-04T01:42:31;34.05;;;10.23;;
31043;SDS011;17710;52.520;13.352;2023-03-04T01:44:59;36.35;;;10.73;;
31043;SDS011;17710;52.520;13.352;2023-03-04T01:47:26;33.33;;;10.23;;
31043;SDS011;17710;52.520;13.352;2023-03-04T01:49:55;34.08;;;10.05;;
31043;SDS011;17710;52.520;13.352;2023-03-04T01:52:23;29.70;;;9.05;;
31043;SDS011;17710;52.520;13.352;2023-03-04T01:54:52;30.60;;;10.00;;
31043;SDS011;17710;52.520;13.352;2023-03-04T01:57:20;27.08;;;9.40;;
31043;SDS011;17710;52.520;13.352;2023-03-04T02:02:40;28.98;;;9.20;;
31043;SDS011;17710;52.520;13.352;2023-03-04T02:05:06;28.70;;;8.60;;
31043;SDS011;17710;52.520;13.352;2023-03-04T02:07:35;34.70;;;9.27;;
31043;SDS011;17710;52.520;13.352;2023-03-04T02:10:01;29.15;;;8.77;;
31043;SDS011;17710;52.520;13.352;2023-03-04T02:12:29;36.50;;;10.60;;
31043;SDS011;17710;52.520;13.352;2023-03-04T02:14:55;33.33;;;8.75;;
31043;SDS011;17710;52.520;13.352;2023-03-04T02:17:23;19.45;;;7.30;;
31043;SDS011;17710;52.520;13.352;2023-03-04T02:19:51;24.05;;;7.43;;
31043;SDS011;17710;52.520;13.352;2023-03-04T02:22:26;28.42;;;8.70;;
31043;SDS011;17710;52.520;13.352;2023-03-04T02:24:55;28.85;;;8.80;;
31043;SDS011;17710;52.520;13.352;2023-03-04T02:27:26;26.92;;;7.60;;
31043;SDS011;17710;52.520;13.352;2023-03-04T02:29:53;38.13;;;8.23;;
31043;SDS011;17710;52.520;13.352;2023-03-04T02:32:19;30.63;;;8.07;;
31043;SDS011;17710;52.520;13.352;2023-03-04T02:34:47;28.15;;;7.03;;
31043;SDS011;17710;52.520;13.352;2023-03-04T02:37:16;30.75;;;6.20;;
31043;SDS011;17710;52.520;13.352;2023-03-04T02:39:46;26.80;;;7.25;;
31043;SDS011;17710;52.520;13.352;2023-03-04T02:42:14;36.65;;;7.63;;
31043;SDS011;17710;52.520;13.352;2023-03-04T02:44:44;30.90;;;6.88;;
31043;SDS011;17710;52.520;13.352;2023-03-04T02:47:14;24.52;;;7.43;;
31043;SDS011;17710;52.520;13.352;2023-03-04T02:49:42;29.92;;;7.18;;
31043;SDS011;17710;52.520;13.352;2023-03-04T02:52:12;25.45;;;7.35;;
31043;SDS011;17710;52.520;13.352;2023-03-04T02:54:40;29.17;;;6.55;;
31043;SDS011;17710;52.520;13.352;2023-03-04T02:57:07;24.35;;;6.43;;
31043;SDS011;17710;52.520;13.352;2023-03-04T02:59:35;21.90;;;6.03;;
31043;SDS011;17710;52.520;13.352;2023-03-04T03:02:04;28.40;;;6.05;;
31043;SDS011;17710;52.520;13.352;2023-03-04T03:04:31;25.25;;;6.53;;
31043;SDS011;17710;52.520;13.352;2023-03-04T03:06:58;27.45;;;6.93;;
31043;SDS011;17710;52.520;13.352;2023-03-04T03:09:24;23.80;;;5.95;;
31043;SDS011;17710;52.520;13.352;2023-03-04T03:11:51;30.23;;;6.78;;
31043;SDS011;17710;52.520;13.352;2023-03-04T03:14:18;22.52;;;6.22;;
31043;SDS011;17710;52.520;13.352;2023-03-04T03:16:45;29.77;;;6.15;;
31043;SDS011;17710;52.520;13.352;2023-03-04T03:19:16;35.92;;;5.88;;
31043;SDS011;17710;52.520;13.352;2023-03-04T03:21:43;26.17;;;6.55;;
31043;SDS011;17710;52.520;13.352;2023-03-04T03:24:09;22.23;;;5.90;;
31043;SDS011;17710;52.520;13.352;2023-03-04T03:26:35;27.38;;;6.07;;
31043;SDS011;17710;52.520;13.352;2023-03-04T03:29:03;30.98;;;7.55;;
31043;SDS011;17710;52.520;13.352;2023-03-04T03:31:30;24.08;;;7.43;;
31043;SDS011;17710;52.520;13.352;2023-03-04T03:33:56;28.17;;;6.03;;
31043;SDS011;17710;52.520;13.352;2023-03-04T03:36:24;23.33;;;5.57;;
31043;SDS011;17710;52.520;13.352;2023-03-04T03:38:50;34.78;;;5.95;;
31043;SDS011;17710;52.520;13.352;2023-03-04T03:41:17;25.83;;;5.68;;
31043;SDS011;17710;52.520;13.352;2023-03-04T03:43:43;24.38;;;5.40;;
31043;SDS011;17710;52.520;13.352;2023-03-04T03:46:09;20.50;;;5.78;;
31043;SDS011;17710;52.520;13.352;2023-03-04T03:48:36;32.38;;;5.50;;
31043;SDS011;17710;52.520;13.352;2023-03-04T03:51:02;25.73;;;4.90;;
31043;SDS011;17710;52.520;13.352;2023-03-04T03:53:30;25.52;;;5.22;;
31043;SDS011;17710;52.520;13.352;2023-03-04T03:55:56;26.00;;;5.95;;
31043;SDS011;17710;52.520;13.352;2023-03-04T03:58:23;35.17;;;5.35;;
31043;SDS011;17710;52.520;13.352;2023-03-04T04:00:50;30.02;;;5.93;;
31043;SDS011;17710;52.520;13.352;2023-03-04T04:03:17;20.92;;;4.68;;
31043;SDS011;17710;52.520;13.352;2023-03-04T04:05:44;25.85;;;4.75;;
31043;SDS011;17710;52.520;13.352;2023-03-04T04:08:11;20.02;;;4.35;;
31043;SDS011;17710;52.520;13.352;2023-03-04T04:10:39;22.92;;;4.90;;
31043;SDS011;17710;52.520;13.352;2023-03-04T04:13:06;29.88;;;4.97;;
31043;SDS011;17710;52.520;13.352;2023-03-04T04:15:32;21.65;;;4.18;;
31043;SDS011;17710;52.520;13.352;2023-03-04T04:17:59;18.55;;;4.43;;
31043;SDS011;17710;52.520;13.352;2023-03-04T04:20:25;22.23;;;5.40;;
31043;SDS011;17710;52.520;13.352;2023-03-04T04:22:52;18.90;;;4.43;;
31043;SDS011;17710;52.520;13.352;2023-03-04T04:25:19;22.58;;;4.53;;
31043;SDS011;17710;52.520;13.352;2023-03-04T04:27:47;18.50;;;3.97;;
31043;SDS011;17710;52.520;13.352;2023-03-04T04:30:15;20.85;;;4.82;;
31043;SDS011;17710;52.520;13.352;2023-03-04T04:32:42;22.85;;;4.40;;
31043;SDS011;17710;52.520;13.352;2023-03-04T04:35:08;27.77;;;4.93;;
31043;SDS011;17710;52.520;13.352;2023-03-04T04:37:35;19.67;;;4.10;;
31043;SDS011;17710;52.520;13.352;2023-03-04T04:40:01;19.75;;;4.30;;
31043;SDS011;17710;52.520;13.352;2023-03-04T04:42:28;25.02;;;4.55;;
31043;SDS011;17710;52.520;13.352;2023-03-04T04:44:56;23.10;;;4.75;;
31043;SDS011;17710;52.520;13.352;2023-03-04T04:47:23;18.75;;;4.57;;
31043;SDS011;17710;52.520;13.352;2023-03-04T04:49:49;18.80;;;4.55;;
31043;SDS011;17710;52.520;13.352;2023-03-04T04:52:16;16.40;;;4.22;;
31043;SDS011;17710;52.520;13.352;2023-03-04T04:54:42;18.23;;;4.13;;
31043;SDS011;17710;52.520;13.352;2023-03-04T04:57:09;21.83;;;4.57;;
31043;SDS011;17710;52.520;13.352;2023-03-04T04:59:35;24.05;;;4.78;;
31043;SDS011;17710;52.520;13.352;2023-03-04T05:02:03;22.55;;;5.97;;
31043;SDS011;17710;52.520;13.352;2023-03-04T05:04:29;30.70;;;5.80;;
31043;SDS011;17710;52.520;13.352;2023-03-04T05:06:56;17.38;;;4.57;;
31043;SDS011;17710;52.520;13.352;2023-03-04T05:09:22;18.10;;;4.22;;
31043;SDS011;17710;52.520;13.352;2023-03-04T05:11:49;17.08;;;3.75;;
31043;SDS011;17710;52.520;13.352;2023-03-04T05:14:15;18.08;;;3.65;;
31043;SDS011;17710;52.520;13.352;2023-03-04T05:16:42;24.38;;;4.25;;
31043;SDS011;17710;52.520;13.352;2023-03-04T05:19:10;15.77;;;3.88;;
31043;SDS011;17710;52.520;13.352;2023-03-04T05:21:37;19.90;;;4.43;;
31043;SDS011;17710;52.520;13.352;2023-03-04T05:24:03;18.40;;;3.47;;
31043;SDS011;17710;52.520;13.352;2023-03-04T05:26:30;20.23;;;3.75;;
31043;SDS011;17710;52.520;13.352;2023-03-04T05:28:57;26.17;;;4.82;;
31043;SDS011;17710;52.520;13.352;2023-03-04T05:31:23;14.57;;;3.33;;
31043;SDS011;17710;52.520;13.352;2023-03-04T05:33:50;13.05;;;3.55;;
31043;SDS011;17710;52.520;13.352;2023-03-04T05:36:17;19.55;;;3.50;;
31043;SDS011;17710;52.520;13.352;2023-03-04T05:38:44;17.40;;;3.40;;
31043;SDS011;17710;52.520;13.352;2023-03-04T05:41:10;14.30;;;3.28;;
31043;SDS011;17710;52.520;13.352;2023-03-04T05:43:37;18.13;;;4.05;;
31043;SDS011;17710;52.520;13.352;2023-03-04T05:46:06;18.70;;;4.38;;
31043;SDS011;17710;52.520;13.352;2023-03-04T05:48:33;20.73;;;3.10;;
31043;SDS011;17710;52.520;13.352;2023-03-04T05:51:00;19.25;;;4.05;;
31043;SDS011;17710;52.520;13.352;2023-03-04T05:53:28;19.00;;;4.20;;
31043;SDS011;17710;52.520;13.352;2023-03-04T05:55:55;14.05;;;3.28;;
31043;SDS011;17710;52.520;13.352;2023-03-04T05:58:23;18.95;;;3.28;;
31043;SDS011;17710;52.520;13.352;2023-03-04T06:00:49;22.30;;;3.25;;
31043;SDS011;17710;52.520;13.352;2023-03-04T06:03:16;11.63;;;2.90;;
31043;SDS011;17710;52.520;13.352;2023-03-04T06:05:44;14.65;;;3.00;;
31043;SDS011;17710;52.520;13.352;2023-03-04T06:08:10;13.32;;;2.63;;
31043;SDS011;17710;52.520;13.352;2023-03-04T06:10:39;16.95;;;3.55;;
31043;SDS011;17710;52.520;13.352;2023-03-04T06:13:07;11.95;;;2.65;;
31043;SDS011;17710;52.520;13.352;2023-03-04T06:15:33;11.40;;;2.80;;
31043;SDS011;17710;52.520;13.352;2023-03-04T06:18:00;9.45;;;3.17;;
31043;SDS011;17710;52.520;13.352;2023-03-04T06:20:26;15.38;;;2.78;;
31043;SDS011;17710;52.520;13.352;2023-03-04T06:22:53;14.27;;;3.17;;
31043;SDS011;17710;52.520;13.352;2023-03-04T06:25:19;19.48;;;3.53;;
31043;SDS011;17710;52.520;13.352;2023-03-04T06:27:47;21.55;;;4.63;;
31043;SDS011;17710;52.520;13.352;2023-03-04T06:30:13;15.90;;;3.03;;
31043;SDS011;17710;52.520;13.352;2023-03-04T06:32:40;15.20;;;2.97;;
31043;SDS011;17710;52.520;13.352;2023-03-04T06:35:08;15.13;;;3.47;;
31043;SDS011;17710;52.520;13.352;2023-03-04T06:37:35;15.25;;;2.85;;
31043;SDS011;17710;52.520;13.352;2023-03-04T06:40:02;14.15;;;2.72;;
31043;SDS011;17710;52.520;13.352;2023-03-04T06:42:28;9.90;;;3.38;;
31043;SDS011;17710;52.520;13.352;2023-03-04T06:44:56;13.50;;;3.33;;
31043;SDS011;17710;52.520;13.352;2023-03-04T06:47:22;14.23;;;2.75;;
31043;SDS011;17710;52.520;13.352;2023-03-04T06:49:49;17.90;;;2.88;;
31043;SDS011;17710;52.520;13.352;2023-03-04T06:52:16;12.07;;;3.08;;
31043;SDS011;17710;52.520;13.352;2023-03-04T06:54:43;17.33;;;2.97;;
31043;SDS011;17710;52.520;13.352;2023-03-04T06:57:09;13.75;;;3.33;;
31043;SDS011;17710;52.520;13.352;2023-03-04T06:59:37;11.05;;;3.00;;
31043;SDS011;17710;52.520;13.352;2023-03-04T07:02:05;14.88;;;2.50;;
31043;SDS011;17710;52.520;13.352;2023-03-04T07:04:32;9.88;;;2.58;;
31043;SDS011;17710;52.520;13.352;2023-03-04T07:06:58;10.80;;;2.58;;
31043;SDS011;17710;52.520;13.352;2023-03-04T07:09:25;7.38;;;2.50;;
31043;SDS011;17710;52.520;13.352;2023-03-04T07:11:51;9.73;;;2.80;;
31043;SDS011;17710;52.520;13.352;2023-03-04T07:14:18;9.95;;;2.95;;
31043;SDS011;17710;52.520;13.352;2023-03-04T07:16:44;14.50;;;3.13;;
31043;SDS011;17710;52.520;13.352;2023-03-04T07:19:12;20.95;;;3.67;;
31043;SDS011;17710;52.520;13.352;2023-03-04T07:21:39;9.55;;;2.40;;
31043;SDS011;17710;52.520;13.352;2023-03-04T07:24:05;9.90;;;2.80;;
31043;SDS011;17710;52.520;13.352;2023-03-04T07:26:32;18.38;;;3.05;;
31043;SDS011;17710;52.520;13.352;2023-03-04T07:28:59;12.80;;;3.03;;
31043;SDS011;17710;52.520;13.352;2023-03-04T07:31:26;12.70;;;2.60;;
31043;SDS011;17710;52.520;13.352;2023-03-04T07:33:55;7.45;;;2.60;;
31043;SDS011;17710;52.520;13.352;2023-03-04T07:36:24;8.50;;;2.40;;
31043;SDS011;17710;52.520;13.352;2023-03-04T07:38:52;8.73;;;2.40;;
31043;SDS011;17710;52.520;13.352;2023-03-04T07:41:19;9.15;;;2.30;;
31043;SDS011;17710;52.520;13.352;2023-03-04T07:43:47;4.03;;;2.05;;
31043;SDS011;17710;52.520;13.352;2023-03-04T07:46:14;8.82;;;2.45;;
31043;SDS011;17710;52.520;13.352;2023-03-04T07:48:41;11.23;;;2.40;;
31043;SDS011;17710;52.520;13.352;2023-03-04T07:51:09;10.00;;;2.47;;
31043;SDS011;17710;52.520;13.352;2023-03-04T07:53:39;9.40;;;2.80;;
31043;SDS011;17710;52.520;13.352;2023-03-04T07:56:09;13.52;;;2.15;;
31043;SDS011;17710;52.520;13.352;2023-03-04T07:58:38;13.32;;;2.15;;
31043;SDS011;17710;52.520;13.352;2023-03-04T08:01:07;11.80;;;2.25;;
31043;SDS011;17710;52.520;13.352;2023-03-04T08:03:34;10.10;;;2.08;;
31043;SDS011;17710;52.520;13.352;2023-03-04T08:06:02;7.32;;;2.25;;
31043;SDS011;17710;52.520;13.352;2023-03-04T08:08:30;10.65;;;1.70;;
31043;SDS011;17710;52.520;13.352;2023-03-04T08:10:58;4.60;;;1.48;;
31043;SDS011;17710;52.520;13.352;2023-03-04T08:13:24;4.53;;;1.75;;
31043;SDS011;17710;52.520;13.352;2023-03-04T08:15:51;8.63;;;1.80;;
31043;SDS011;17710;52.520;13.352;2023-03-04T08:18:17;6.93;;;1.38;;
31043;SDS011;17710;52.520;13.352;2023-03-04T08:20:44;4.50;;;1.50;;
31043;SDS011;17710;52.520;13.352;2023-03-04T08:23:10;9.57;;;1.63;;
31043;SDS011;17710;52.520;13.352;2023-03-04T08:25:37;3.83;;;1.52;;
31043;SDS011;17710;52.520;13.352;2023-03-04T08:28:06;8.40;;;1.98;;
31043;SDS011;17710;52.520;13.352;2023-03-04T08:30:34;12.73;;;1.92;;
31043;SDS011;17710;52.520;13.352;2023-03-04T08:33:02;5.50;;;1.52;;
31043;SDS011;17710;52.520;13.352;2023-03-04T08:35:32;10.43;;;1.40;;
31043;SDS011;17710;52.520;13.352;2023-03-04T08:38:01;12.60;;;1.67;;
31043;SDS011;17710;52.520;13.352;2023-03-04T08:40:27;4.43;;;1.30;;
31043;SDS011;17710;52.520;13.352;2023-03-04T08:42:55;6.93;;;1.27;;
31043;SDS011;17710;52.520;13.352;2023-03-04T08:45:22;11.32;;;1.75;;
31043;SDS011;17710;52.520;13.352;2023-03-04T08:47:49;6.60;;;1.52;;
31043;SDS011;17710;52.520;13.352;2023-03-04T08:50:17;12.82;;;1.70;;
31043;SDS011;17710;52.520;13.352;2023-03-04T08:52:43;9.80;;;1.08;;
31043;SDS011;17710;52.520;13.352;2023-03-04T08:55:10;5.68;;;1.20;;
31043;SDS011;17710;52.520;13.352;2023-03-04T08:57:37;10.10;;;1.48;;
31043;SDS011;17710;52.520;13.352;2023-03-04T09:00:03;8.95;;;1.50;;
31043;SDS011;17710;52.520;13.352;2023-03-04T09:02:32;8.27;;;1.60;;
31043;SDS011;17710;52.520;13.352;2023-03-04T09:04:58;9.52;;;1.63;;
31043;SDS011;17710;52.520;13.352;2023-03-04T09:07:26;13.65;;;1.58;;
31043;SDS011;17710;52.520;13.352;2023-03-04T09:09:52;10.65;;;1.92;;
31043;SDS011;17710;52.520;13.352;2023-03-04T09:12:23;5.78;;;1.25;;
31043;SDS011;17710;52.520;13.352;2023-03-04T09:14:50;11.13;;;2.15;;
31043;SDS011;17710;52.520;13.352;2023-03-04T09:17:16;9.93;;;2.38;;
31043;SDS011;17710;52.520;13.352;2023-03-04T09:19:44;11.30;;;2.08;;
31043;SDS011;17710;52.520;13.352;2023-03-04T09:22:11;11.07;;;2.50;;
31043;SDS011;17710;52.520;13.352;2023-03-04T09:24:40;9.43;;;2.70;;
31043;SDS011;17710;52.520;13.352;2023-03-04T09:27:07;13.65;;;2.15;;
31043;SDS011;17710;52.520;13.352;2023-03-04T09:29:34;8.98;;;2.00;;
31043;SDS011;17710;52.520;13.352;2023-03-04T09:32:01;10.20;;;1.55;;
31043;SDS011;17710;52.520;13.352;2023-03-04T09:34:27;9.23;;;1.60;;
31043;SDS011;17710;52.520;13.352;2023-03-04T09:36:55;7.90;;;1.65;;
31043;SDS011;17710;52.520;13.352;2023-03-04T09:39:22;7.60;;;1.70;;
31043;SDS011;17710;52.520;13.352;2023-03-04T09:41:49;7.97;;;1.20;;
31043;SDS011;17710;52.520;13.352;2023-03-04T09:44:21;9.05;;;1.40;;
31043;SDS011;17710;52.520;13.352;2023-03-04T09:46:49;9.93;;;1.98;;
31043;SDS011;17710;52.520;13.352;2023-03-04T09:49:16;7.60;;;1.35;;
31043;SDS011;17710;52.520;13.352;2023-03-04T09:51:54;14.70;;;2.17;;
31043;SDS011;17710;52.520;13.352;2023-03-04T09:54:50;11.75;;;2.00;;
31043;SDS011;17710;52.520;13.352;2023-03-04T09:57:32;11.82;;;2.63;;
31043;SDS011;17710;52.520;13.352;2023-03-04T10:00:13;6.00;;;1.60;;
31043;SDS011;17710;52.520;13.352;2023-03-04T10:02:45;14.32;;;2.40;;
31043;SDS011;17710;52.520;13.352;2023-03-04T10:05:29;10.65;;;1.42;;
31043;SDS011;17710;52.520;13.352;2023-03-04T10:07:59;14.85;;;2.63;;
31043;SDS011;17710;52.520;13.352;2023-03-04T10:10:35;15.95;;;1.80;;
31043;SDS011;17710;52.520;13.352;2023-03-04T10:13:09;12.52;;;1.60;;
31043;SDS011;17710;52.520;13.352;2023-03-04T10:15:42;11.85;;;1.50;;
31043;SDS011;17710;52.520;13.352;2023-03-04T10:18:15;11.10;;;2.10;;
31043;SDS011;17710;52.520;13.352;2023-03-04T10:20:49;9.27;;;1.50;;
31043;SDS011;17710;52.520;13.352;2023-03-04T10:23:23;10.13;;;1.58;;
31043;SDS011;17710;52.520;13.352;2023-03-04T10:25:51;11.45;;;1.83;;
31043;SDS011;17710;52.520;13.352;2023-03-04T10:28:19;9.68;;;1.88;;
31043;SDS011;17710;52.520;13.352;2023-03-04T10:30:48;13.15;;;1.92;;
31043;SDS011;17710;52.520;13.352;2023-03-04T10:33:22;13.35;;;2.03;;
31043;SDS011;17710;52.520;13.352;2023-03-04T10:35:52;9.65;;;2.10;;
31043;SDS011;17710;52.520;13.352;2023-03-04T10:38:27;16.45;;;2.45;;
31043;SDS011;17710;52.520;13.352;2023-03-04T10:40:55;16.75;;;2.47;;
31043;SDS011;17710;52.520;13.352;2023-03-04T10:43:23;16.98;;;2.60;;
31043;SDS011;17710;52.520;13.352;2023-03-04T10:45:53;11.23;;;2.80;;
31043;SDS011;17710;52.520;13.352;2023-03-04T10:48:22;14.70;;;2.03;;
31043;SDS011;17710;52.520;13.352;2023-03-04T10:50:50;12.32;;;2.42;;
31043;SDS011;17710;52.520;13.352;2023-03-04T10:53:22;14.85;;;2.25;;
31043;SDS011;17710;52.520;13.352;2023-03-04T10:55:55;17.85;;;2.88;;
31043;SDS011;17710;52.520;13.352;2023-03-04T10:58:21;15.70;;;2.88;;
31043;SDS011;17710;52.520;13.352;2023-03-04T11:00:51;19.20;;;2.45;;
31043;SDS011;17710;52.520;13.352;2023-03-04T11:03:29;13.45;;;2.25;;
31043;SDS011;17710;52.520;13.352;2023-03-04T11:06:04;17.38;;;2.60;;
31043;SDS011;17710;52.520;13.352;2023-03-04T11:08:37;21.52;;;2.15;;
31043;SDS011;17710;52.520;13.352;2023-03-04T11:11:18;17.92;;;2.80;;
31043;SDS011;17710;52.520;13.352;2023-03-04T11:13:49;17.00;;;2.53;;
31043;SDS011;17710;52.520;13.352;2023-03-04T11:16:22;17.70;;;2.58;;
31043;SDS011;17710;52.520;13.352;2023-03-04T11:18:51;20.75;;;3.45;;
31043;SDS011;17710;52.520;13.352;2023-03-04T11:21:20;13.40;;;2.45;;
31043;SDS011;17710;52.520;13.352;2023-03-04T11:23:49;20.92;;;3.42;;
31043;SDS011;17710;52.520;13.352;2023-03-04T11:26:22;14.25;;;2.53;;
31043;SDS011;17710;52.520;13.352;2023-03-04T11:28:55;14.47;;;2.20;;
31043;SDS011;17710;52.520;13.352;2023-03-04T11:31:26;19.17;;;2.28;;
31043;SDS011;17710;52.520;13.352;2023-03-04T11:33:57;15.50;;;2.40;;
31043;SDS011;17710;52.520;13.352;2023-03-04T11:36:32;17.00;;;3.42;;
31043;SDS011;17710;52.520;13.352;2023-03-04T11:39:10;18.25;;;2.90;;
31043;SDS011;17710;52.520;13.352;2023-03-04T11:41:45;19.17;;;3.35;;
31043;SDS011;17710;52.520;13.352;2023-03-04T11:44:18;17.97;;;3.03;;
31043;SDS011;17710;52.520;13.352;2023-03-04T11:46:50;22.95;;;2.70;;
31043;SDS011;17710;52.520;13.352;2023-03-04T11:49:32;18.75;;;2.58;;
31043;SDS011;17710;52.520;13.352;2023-03-04T11:52:24;23.50;;;3.75;;
31043;SDS011;17710;52.520;13.352;2023-03-04T11:55:13;16.92;;;2.38;;
31043;SDS011;17710;52.520;13.352;2023-03-04T11:57:53;15.73;;;2.95;;
31043;SDS011;17710;52.520;13.352;2023-03-04T12:00:30;14.88;;;3.20;;
31043;SDS011;17710;52.520;13.352;2023-03-04T12:03:14;21.75;;;3.20;;
31043;SDS011;17710;52.520;13.352;2023-03-04T12:05:59;24.80;;;3.63;;
31043;SDS011;17710;52.520;13.352;2023-03-04T12:08:33;24.00;;;3.20;;
31043;SDS011;17710;52.520;13.352;2023-03-04T12:11:15;15.68;;;3.00;;
31043;SDS011;17710;52.520;13.352;2023-03-04T12:14:01;19.83;;;2.70;;
31043;SDS011;17710;52.520;13.352;2023-03-04T12:19:55;15.85;;;2.63;;
31043;SDS011;17710;52.520;13.352;2023-03-04T12:22:33;26.60;;;3.03;;
31043;SDS011;17710;52.520;13.352;2023-03-04T12:28:19;14.20;;;2.30;;
31043;SDS011;17710;52.520;13.352;2023-03-04T12:31:01;19.10;;;3.28;;
31043;SDS011;17710;52.520;13.352;2023-03-04T12:33:40;19.17;;;2.58;;
31043;SDS011;17710;52.520;13.352;2023-03-04T12:36:16;19.13;;;2.95;;
31043;SDS011;17710;52.520;13.352;2023-03-04T12:39:03;17.35;;;2.80;;
31043;SDS011;17710;52.520;13.352;2023-03-04T12:41:44;24.90;;;4.05;;
31043;SDS011;17710;52.520;13.352;2023-03-04T12:44:18;16.80;;;3.17;;
31043;SDS011;17710;52.520;13.352;2023-03-04T12:46:50;18.42;;;2.38;;
31043;SDS011;17710;52.520;13.352;2023-03-04T12:49:37;15.20;;;2.50;;
31043;SDS011;17710;52.520;13.352;2023-03-04T12:52:14;18.63;;;3.08;;
31043;SDS011;17710;52.520;13.352;2023-03-04T12:54:48;12.45;;;2.28;;
31043;SDS011;17710;52.520;13.352;2023-03-04T12:57:21;15.50;;;2.35;;
31043;SDS011;17710;52.520;13.352;2023-03-04T12:59:50;20.88;;;3.00;;
31043;SDS011;17710;52.520;13.352;2023-03-04T13:02:36;13.88;;;2.15;;
31043;SDS011;17710;52.520;13.352;2023-03-04T13:05:34;15.80;;;2.40;;
31043;SDS011;17710;52.520;13.352;2023-03-04T13:08:21;19.00;;;2.55;;
31043;SDS011;17710;52.520;13.352;2023-03-04T13:10:59;15.10;;;2.35;;
31043;SDS011;17710;52.520;13.352;2023-03-04T13:13:34;15.52;;;2.33;;
31043;SDS011;17710;52.520;13.352;2023-03-04T13:16:03;23.93;;;3.30;;
31043;SDS011;17710;52.520;13.352;2023-03-04T13:18:34;20.60;;;2.88;;
31043;SDS011;17710;52.520;13.352;2023-03-04T13:21:15;19.08;;;2.55;;
31043;SDS011;17710;52.520;13.352;2023-03-04T13:23:48;19.50;;;2.97;;
31043;SDS011;17710;52.520;13.352;2023-03-04T13:26:16;11.18;;;2.20;;
31043;SDS011;17710;52.520;13.352;2023-03-04T13:28:50;15.73;;;2.80;;
31043;SDS011;17710;52.520;13.352;2023-03-04T13:31:22;14.18;;;2.35;;
31043;SDS011;17710;52.520;13.352;2023-03-04T13:33:59;16.83;;;3.25;;
31043;SDS011;17710;52.520;13.352;2023-03-04T13:39:29;18.20;;;3.17;;
31043;SDS011;17710;52.520;13.352;2023-03-04T13:41:58;20.73;;;3.25;;
31043;SDS011;17710;52.520;13.352;2023-03-04T13:44:32;14.23;;;2.63;;
31043;SDS011;17710;52.520;13.352;2023-03-04T13:47:20;20.88;;;4.47;;
31043;SDS011;17710;52.520;13.352;2023-03-04T13:53:19;21.88;;;3.00;;
31043;SDS011;17710;52.520;13.352;2023-03-04T13:56:00;21.42;;;2.80;;
31043;SDS011;17710;52.520;13.352;2023-03-04T13:58:46;20.65;;;3.17;;
31043;SDS011;17710;52.520;13.352;2023-03-04T14:01:22;20.13;;;3.13;;
31043;SDS011;17710;52.520;13.352;2023-03-04T14:03:51;19.35;;;2.78;;
31043;SDS011;17710;52.520;13.352;2023-03-04T14:06:19;15.07;;;2.85;;
31043;SDS011;17710;52.520;13.352;2023-03-04T14:08:48;20.30;;;3.30;;
31043;SDS011;17710;52.520;13.352;2023-03-04T14:11:17;15.82;;;2.53;;
31043;SDS011;17710;52.520;13.352;2023-03-04T14:13:50;20.40;;;2.90;;
31043;SDS011;17710;52.520;13.352;2023-03-04T14:16:20;19.95;;;2.85;;
31043;SDS011;17710;52.520;13.352;2023-03-04T14:18:57;12.45;;;2.78;;
31043;SDS011;17710;52.520;13.352;2023-03-04T14:21:28;30.83;;;3.90;;
31043;SDS011;17710;52.520;13.352;2023-03-04T14:24:01;23.20;;;3.17;;
31043;SDS011;17710;52.520;13.352;2023-03-04T14:26:30;25.08;;;3.22;;
31043;SDS011;17710;52.520;13.352;2023-03-04T14:28:58;22.48;;;3.40;;
31043;SDS011;17710;52.520;13.352;2023-03-04T14:31:27;19.17;;;3.03;;
31043;SDS011;17710;52.520;13.352;2023-03-04T14:33:56;23.20;;;4.05;;
31043;SDS011;17710;52.520;13.352;2023-03-04T14:36:27;19.67;;;3.15;;
31043;SDS011;17710;52.520;13.352;2023-03-04T14:38:56;14.60;;;2.40;;
31043;SDS011;17710;52.520;13.352;2023-03-04T14:41:26;23.27;;;3.17;;
31043;SDS011;17710;52.520;13.352;2023-03-04T14:43:58;24.60;;;3.10;;
31043;SDS011;17710;52.520;13.352;2023-03-04T14:46:29;24.17;;;3.33;;
31043;SDS011;17710;52.520;13.352;2023-03-04T14:48:59;23.88;;;3.60;;
31043;SDS011;17710;52.520;13.352;2023-03-04T14:51:30;20.85;;;3.65;;